Terminal Aerodrome Forecast
Issued by NWS

Home | Current Version | Previous Version | Text Only | Print | Product List | Glossary On
Versions: 1 2 3 4 5 6 7 8 9 10 11 12 13 14 15 16
000
FTUS43 KFGF 310520
TAFBJI
TAF
KBJI 310520Z 3106/0106 11005KT P6SM VCTS SCT050CB BKN200
     FM310800 12008KT P6SM -RA SCT015 BKN090
     FM311400 13010KT P6SM VCSH OVC015
     FM311800 14010KT P6SM BKN025
     FM312100 14009KT P6SM BKN250=

USA.gov is the U.S. government's official web portal to all federal, state and local government web resources and services.